Nashua, Montana
Current Conditions -  °F | °C
As of 2:53 PM on Friday 28 Nov 2014 (Local Time) from KGGW Reporting Station
Haze Haze  
Wind Chill: 23°   Ceiling: Unl
Heat Index: 29°   Visibility: 6mi
Dew Point: 24°   Wind: 6mph
Humidity: 82%   Direction: 300°WNW
Pressure: 29.41"   Gusts: NA
Location:  48.13°N, 106.36°W
Report Text: KGGW 282153Z AUTO 30005KT 6SM HZ CLR M02/M04 A2941 RMK AO2 PRESRR SLP992 T10171044
Loading
Personal Weather Stations






























Interactive Weather Map New forecast layout! Learn more

10-Day Weather Forecast

Advertisements
Track Severe Weather on mobile